Ana Sayfa
METAR-TAF:

METAR-TAF

Havaalanları :

St. Michael, Alaska, Amerika Birleşik Devletleri

Enlem: 63-29-24N, Boylam: 162-06-37W, yükseklik: 30 m

Güncel hava durumu gözlemi

Rapor saat 03:56 UTC de 59 dakika önce yapıldı.
Rüzgar kuzeydoğudan 5 kt
Sıcaklık -3°C
Nem 80%
Basınç 1024 hPa
Görüş mesafesi: 14.5 km
Açık gökyüzü

METAR: PAMK 010356Z AUTO 04005KT 9SM CLR M03/M06 A3024 RMK AO2 SLP243 T10281056 FZRANO

Saat: 20:55 (04:55 UTC)


TAF: eksik

4.000'den fazla havaalanı için hava durumu gözlemleri ve tahminleri (METAR ve TAF raporları).

Kullanılabilir istasyonlar harita üzerinde sarı ve kırmızı noktalarla gösterilir.

İstasyonun adını görmek için fareyi noktanın üzerinde gezdirin.

Sonrasında hava gözlem ve tahminlerini görmek için tıklayın.

Haritayı değiştirmek için: yaklaştırmak için siyah artı işaretli yeşil düğmeye ve uzaklaştırmak için de eksi işaretli düğmeye hızla tıklayın; bitişik haritalar için yeşil okları kullanın.


METAR-TAF: